Time;durP1;ratioP1;P1;durP2;ratioP2;P2;SDS_P1;SDS_P2;PMS_P1;PMS_P2;Temp;Humidity;BMP_temperature;BMP_pressure;BME280_temperature;BME280_humidity;BME280_pressure;Samples;Min_cycle;Max_cycle;Signal;HPM_P1;HPM_P2
2021/05/08 00:01:16;;;;;;;1.38;1.25;;;;;;;;;;5050144;28;20032;-77
2021/05/08 00:03:42;;;;;;;0.90;0.90;;;;;;;;;;5053283;28;20033;-79
2021/05/08 00:06:10;;;;;;;1.60;1.50;;;;;;;;;;5054171;28;20118;-79
2021/05/08 00:08:36;;;;;;;1.38;1.23;;;;;;;;;;5054523;28;20037;-80
2021/05/08 00:11:03;;;;;;;1.08;1.00;;;;;;;;;;5054159;28;20037;-80
2021/05/08 00:13:29;;;;;;;0.80;0.80;;;;;;;;;;5053844;28;20025;-77
2021/05/08 00:15:55;;;;;;;0.70;0.70;;;;;;;;;;5054239;28;20059;-77
2021/05/08 00:18:21;;;;;;;1.23;1.13;;;;;;;;;;5053781;28;20540;-77
2021/05/08 00:20:47;;;;;;;2.67;1.35;;;;;;;;;;5054203;28;20108;-77
2021/05/08 00:23:13;;;;;;;1.15;1.08;;;;;;;;;;5053357;28;20558;-77
2021/05/08 00:25:39;;;;;;;1.20;1.10;;;;;;;;;;5054153;28;20033;-77
2021/05/08 00:28:05;;;;;;;1.02;1.00;;;;;;;;;;5053924;28;20025;-77
2021/05/08 00:30:32;;;;;;;0.57;0.57;;;;;;;;;;5054012;28;20056;-77
2021/05/08 00:32:59;;;;;;;0.90;0.90;;;;;;;;;;5053590;28;20420;-77
2021/05/08 00:35:25;;;;;;;0.55;0.55;;;;;;;;;;5053524;28;20535;-77
2021/05/08 00:37:51;;;;;;;2.58;0.95;;;;;;;;;;5054016;28;20027;-77
2021/05/08 00:40:17;;;;;;;0.85;0.85;;;;;;;;;;5053615;28;20025;-77
2021/05/08 00:42:43;;;;;;;1.00;1.00;;;;;;;;;;5053429;28;20159;-77
2021/05/08 00:45:09;;;;;;;1.70;0.70;;;;;;;;;;5053476;28;20033;-77
2021/05/08 00:47:43;;;;;;;0.85;0.85;;;;;;;;;;5053809;28;20028;-77
2021/05/08 00:50:10;;;;;;;0.77;0.77;;;;;;;;;;5053200;28;20526;-77
2021/05/08 00:52:36;;;;;;;0.77;0.77;;;;;;;;;;5053055;28;20029;-77
2021/05/08 00:55:03;;;;;;;1.30;1.20;;;;;;;;;;5053723;28;20463;-77
2021/05/08 00:57:29;;;;;;;1.33;1.10;;;;;;;;;;5053222;28;20056;-77
2021/05/08 00:59:55;;;;;;;1.10;1.00;;;;;;;;;;5053309;28;20554;-77
2021/05/08 01:02:21;;;;;;;1.10;0.85;;;;;;;;;;5052449;28;20020;-77
2021/05/08 01:04:47;;;;;;;1.20;1.10;;;;;;;;;;5052371;28;20075;-77
2021/05/08 01:07:13;;;;;;;1.10;1.10;;;;;;;;;;5052448;28;20036;-77
2021/05/08 01:09:41;;;;;;;0.88;0.70;;;;;;;;;;5035501;28;20411;-77
2021/05/08 01:12:07;;;;;;;1.27;0.80;;;;;;;;;;5052918;28;20032;-77
2021/05/08 01:14:33;;;;;;;1.48;0.93;;;;;;;;;;5051570;28;20106;-77
2021/05/08 01:16:59;;;;;;;0.75;0.73;;;;;;;;;;5053175;28;20036;-77
2021/05/08 01:19:26;;;;;;;1.15;1.10;;;;;;;;;;5052042;28;20028;-77
2021/05/08 01:21:53;;;;;;;0.90;0.80;;;;;;;;;;5052812;28;20039;-77
2021/05/08 01:24:19;;;;;;;0.95;0.90;;;;;;;;;;5052475;28;20033;-77
2021/05/08 01:26:45;;;;;;;1.63;0.70;;;;;;;;;;5052536;28;20033;-77
2021/05/08 01:29:11;;;;;;;0.77;0.73;;;;;;;;;;5052419;28;20020;-77
2021/05/08 01:31:37;;;;;;;1.10;0.95;;;;;;;;;;5052775;28;20379;-77
2021/05/08 01:34:03;;;;;;;1.33;0.93;;;;;;;;;;5052381;28;20029;-77
2021/05/08 01:36:32;;;;;;;1.20;0.95;;;;;;;;;;5052091;28;20047;-77
2021/05/08 01:38:58;;;;;;;1.08;0.98;;;;;;;;;;5052154;28;20096;-77
2021/05/08 01:41:24;;;;;;;0.70;0.70;;;;;;;;;;5052111;28;20032;-77
2021/05/08 01:43:50;;;;;;;0.80;0.80;;;;;;;;;;5052422;28;20082;-77
2021/05/08 01:46:16;;;;;;;0.90;0.77;;;;;;;;;;5051742;28;20511;-77
2021/05/08 01:48:43;;;;;;;0.55;0.55;;;;;;;;;;5052139;28;20479;-77
2021/05/08 01:51:09;;;;;;;1.13;1.02;;;;;;;;;;5051057;28;20037;-77
2021/05/08 01:53:35;;;;;;;0.85;0.85;;;;;;;;;;5052077;28;20025;-77
2021/05/08 01:56:01;;;;;;;0.88;0.88;;;;;;;;;;5052349;28;20040;-77
2021/05/08 01:58:27;;;;;;;1.15;1.15;;;;;;;;;;5051946;28;20053;-77
2021/05/08 02:00:54;;;;;;;1.50;0.98;;;;;;;;;;5051409;28;20052;-77
2021/05/08 02:03:20;;;;;;;2.03;0.60;;;;;;;;;;5051112;28;20435;-77
2021/05/08 02:05:46;;;;;;;0.80;0.80;;;;;;;;;;5052055;28;20033;-77
2021/05/08 02:08:13;;;;;;;0.80;0.80;;;;;;;;;;5051471;28;20033;-77
2021/05/08 02:10:40;;;;;;;1.00;1.00;;;;;;;;;;5052041;28;20032;-77
2021/05/08 02:13:07;;;;;;;1.20;0.85;;;;;;;;;;5051203;28;20025;-77
2021/05/08 02:15:33;;;;;;;1.10;1.10;;;;;;;;;;5052242;28;20029;-77
2021/05/08 02:17:59;;;;;;;1.83;0.70;;;;;;;;;;5051389;28;20368;-77
2021/05/08 02:20:29;;;;;;;0.88;0.88;;;;;;;;;;5051594;28;20036;-77
2021/05/08 02:22:56;;;;;;;0.95;0.93;;;;;;;;;;5051542;28;20025;-79
2021/05/08 02:25:23;;;;;;;0.90;0.90;;;;;;;;;;5050454;28;20033;-79
2021/05/08 02:27:49;;;;;;;0.90;0.90;;;;;;;;;;5051327;28;20041;-77
2021/05/08 02:30:17;;;;;;;0.55;0.55;;;;;;;;;;5051265;28;20025;-76
2021/05/08 02:32:43;;;;;;;0.40;0.40;;;;;;;;;;5050960;28;20037;-77
2021/05/08 02:35:09;;;;;;;0.57;0.57;;;;;;;;;;5051378;28;20040;-77
2021/05/08 02:37:36;;;;;;;0.93;0.80;;;;;;;;;;5051714;28;20029;-77
2021/05/08 02:40:04;;;;;;;1.17;0.80;;;;;;;;;;5050858;28;20053;-77
2021/05/08 02:42:30;;;;;;;1.80;0.57;;;;;;;;;;5050469;28;20100;-77
2021/05/08 02:44:56;;;;;;;2.08;0.88;;;;;;;;;;5033759;28;20404;-77
2021/05/08 02:47:22;;;;;;;1.08;1.00;;;;;;;;;;5051101;28;20033;-77
2021/05/08 02:49:50;;;;;;;1.70;0.60;;;;;;;;;;5050747;28;20029;-77
2021/05/08 02:52:16;;;;;;;1.80;0.73;;;;;;;;;;5050748;28;20029;-76
2021/05/08 02:54:42;;;;;;;0.70;0.70;;;;;;;;;;5050784;28;20125;-77
2021/05/08 02:57:09;;;;;;;1.80;0.77;;;;;;;;;;5050841;28;20045;-79
2021/05/08 02:59:35;;;;;;;1.52;0.80;;;;;;;;;;5051539;28;20025;-77
2021/05/08 03:02:02;;;;;;;1.05;0.82;;;;;;;;;;5050648;28;20490;-77
2021/05/08 03:04:28;;;;;;;0.80;0.80;;;;;;;;;;5050541;28;20028;-77
2021/05/08 03:06:54;;;;;;;0.50;0.47;;;;;;;;;;5051125;28;20052;-77
2021/05/08 03:09:21;;;;;;;0.70;0.70;;;;;;;;;;5050746;28;20021;-76
2021/05/08 03:11:47;;;;;;;0.75;0.60;;;;;;;;;;5050635;28;20027;-77
2021/05/08 03:14:13;;;;;;;0.70;0.70;;;;;;;;;;5050848;28;20091;-77
2021/05/08 03:16:41;;;;;;;0.52;0.52;;;;;;;;;;5050649;28;20029;-77
2021/05/08 03:19:07;;;;;;;0.77;0.77;;;;;;;;;;5051113;28;20032;-77
2021/05/08 03:21:33;;;;;;;0.70;0.70;;;;;;;;;;5050255;28;20385;-77
2021/05/08 03:24:00;;;;;;;0.93;0.88;;;;;;;;;;5050712;28;20090;-77
2021/05/08 03:26:26;;;;;;;1.10;0.77;;;;;;;;;;5050786;28;20041;-77
2021/05/08 03:28:52;;;;;;;0.73;0.60;;;;;;;;;;5050661;28;20036;-77
2021/05/08 03:31:18;;;;;;;1.27;1.17;;;;;;;;;;5050518;28;20039;-76
2021/05/08 03:33:45;;;;;;;1.63;1.35;;;;;;;;;;5049616;28;20021;-77
2021/05/08 03:36:11;;;;;;;0.80;0.80;;;;;;;;;;5050452;28;20025;-77
2021/05/08 03:38:37;;;;;;;0.57;0.57;;;;;;;;;;5054556;28;20025;-77
2021/05/08 03:41:04;;;;;;;0.98;0.80;;;;;;;;;;5054801;28;20036;-77
2021/05/08 03:43:30;;;;;;;0.80;0.55;;;;;;;;;;5053726;28;20099;-77
2021/05/08 03:45:56;;;;;;;1.17;0.85;;;;;;;;;;5054676;28;20092;-77
2021/05/08 03:48:22;;;;;;;0.70;0.70;;;;;;;;;;5054043;28;20071;-77
2021/05/08 03:50:48;;;;;;;0.68;0.68;;;;;;;;;;5053085;28;20017;-77
2021/05/08 03:53:15;;;;;;;1.02;0.70;;;;;;;;;;5053601;28;20017;-77
2021/05/08 03:55:41;;;;;;;0.60;0.60;;;;;;;;;;5053968;28;20111;-77
2021/05/08 03:58:07;;;;;;;0.68;0.68;;;;;;;;;;5054127;28;20049;-77
2021/05/08 04:00:33;;;;;;;0.85;0.80;;;;;;;;;;5054533;28;20423;-77
2021/05/08 04:03:00;;;;;;;0.50;0.50;;;;;;;;;;5053463;28;20033;-77
2021/05/08 04:05:26;;;;;;;0.60;0.60;;;;;;;;;;5053640;28;20029;-77
2021/05/08 04:07:52;;;;;;;1.60;0.77;;;;;;;;;;5054518;28;20471;-77
2021/05/08 04:10:19;;;;;;;2.47;0.98;;;;;;;;;;5053913;28;20032;-77
2021/05/08 04:12:45;;;;;;;0.75;0.75;;;;;;;;;;5053736;28;20025;-77
2021/05/08 04:15:11;;;;;;;0.60;0.60;;;;;;;;;;5035042;28;20047;-77
2021/05/08 04:17:38;;;;;;;0.50;0.50;;;;;;;;;;5054280;28;20025;-79
2021/05/08 04:20:05;;;;;;;0.60;0.60;;;;;;;;;;5054018;28;20430;-78
2021/05/08 04:22:31;;;;;;;3.00;0.98;;;;;;;;;;5053872;28;20110;-79
2021/05/08 04:24:57;;;;;;;0.57;0.57;;;;;;;;;;5053351;28;20025;-79
2021/05/08 04:27:23;;;;;;;1.08;1.00;;;;;;;;;;5053395;28;20112;-79
2021/05/08 04:29:49;;;;;;;0.70;0.70;;;;;;;;;;5054328;28;20037;-77
2021/05/08 04:32:15;;;;;;;0.80;0.80;;;;;;;;;;5053042;28;20028;-76
2021/05/08 04:34:41;;;;;;;1.13;0.60;;;;;;;;;;5053047;28;20029;-77
2021/05/08 04:37:07;;;;;;;0.60;0.60;;;;;;;;;;5053723;28;20049;-77
2021/05/08 04:39:33;;;;;;;0.55;0.55;;;;;;;;;;5053908;28;20035;-77
2021/05/08 04:42:00;;;;;;;0.50;0.50;;;;;;;;;;5052554;28;20033;-77
2021/05/08 04:44:26;;;;;;;3.70;1.35;;;;;;;;;;5053321;28;20074;-77
2021/05/08 04:46:52;;;;;;;0.75;0.75;;;;;;;;;;5052951;28;20048;-77
2021/05/08 04:49:19;;;;;;;0.70;0.70;;;;;;;;;;5052168;28;20025;-77
2021/05/08 04:51:45;;;;;;;2.58;0.63;;;;;;;;;;5052920;28;20483;-77
2021/05/08 04:54:11;;;;;;;1.08;0.98;;;;;;;;;;5052845;28;20032;-77
2021/05/08 04:56:37;;;;;;;0.43;0.43;;;;;;;;;;5052814;28;20040;-77
2021/05/08 04:59:04;;;;;;;1.75;0.52;;;;;;;;;;5052721;28;20519;-77
2021/05/08 05:01:31;;;;;;;0.73;0.70;;;;;;;;;;5052831;28;20048;-79
2021/05/08 05:03:57;;;;;;;0.82;0.82;;;;;;;;;;5052704;28;20491;-80
2021/05/08 05:06:23;;;;;;;0.55;0.55;;;;;;;;;;5052989;28;20025;-76
2021/05/08 05:08:49;;;;;;;1.55;0.63;;;;;;;;;;5053277;28;20025;-77
2021/05/08 05:11:16;;;;;;;0.95;0.95;;;;;;;;;;5052150;28;20564;-79
2021/05/08 05:13:44;;;;;;;0.57;0.57;;;;;;;;;;5052809;28;20462;-79
2021/05/08 05:16:11;;;;;;;1.00;0.55;;;;;;;;;;5052752;28;20069;-77
2021/05/08 05:18:37;;;;;;;0.80;0.80;;;;;;;;;;5052678;28;20023;-77
2021/05/08 05:21:03;;;;;;;1.08;0.65;;;;;;;;;;5052369;28;20029;-77
2021/05/08 05:23:29;;;;;;;1.85;0.60;;;;;;;;;;5052576;28;20120;-77
2021/05/08 05:25:55;;;;;;;0.30;0.30;;;;;;;;;;5052763;28;20049;-77
2021/05/08 05:28:25;;;;;;;0.55;0.55;;;;;;;;;;5051904;28;20045;-77
2021/05/08 05:30:51;;;;;;;0.40;0.40;;;;;;;;;;5052988;28;20086;-77
2021/05/08 05:33:18;;;;;;;0.50;0.50;;;;;;;;;;5051852;28;20033;-77
2021/05/08 05:35:44;;;;;;;0.45;0.45;;;;;;;;;;5052870;28;20104;-77
2021/05/08 05:38:10;;;;;;;1.25;0.50;;;;;;;;;;5052284;28;20037;-77
2021/05/08 05:40:36;;;;;;;0.43;0.43;;;;;;;;;;5051866;28;20491;-79
2021/05/08 05:43:02;;;;;;;0.63;0.52;;;;;;;;;;5051712;28;20017;-79
2021/05/08 05:45:28;;;;;;;0.85;0.85;;;;;;;;;;5052301;28;20036;-79
2021/05/08 05:47:58;;;;;;;1.08;0.95;;;;;;;;;;5052761;28;20116;-79
2021/05/08 05:50:25;;;;;;;0.80;0.80;;;;;;;;;;5051384;28;20021;-79
2021/05/08 05:52:54;;;;;;;1.08;0.93;;;;;;;;;;5052152;28;20025;-79
2021/05/08 05:55:20;;;;;;;0.60;0.60;;;;;;;;;;5051889;28;20104;-79
2021/05/08 05:57:47;;;;;;;0.85;0.43;;;;;;;;;;5051478;28;20037;-79
2021/05/08 06:00:14;;;;;;;0.77;0.60;;;;;;;;;;5051322;28;20029;-79
2021/05/08 06:02:40;;;;;;;0.85;0.85;;;;;;;;;;5051414;28;20029;-79
2021/05/08 06:05:06;;;;;;;0.77;0.77;;;;;;;;;;5051825;28;20025;-78
2021/05/08 06:07:32;;;;;;;0.60;0.57;;;;;;;;;;5051628;28;20025;-79
2021/05/08 06:09:58;;;;;;;0.90;0.80;;;;;;;;;;5052245;28;20020;-79
2021/05/08 06:12:25;;;;;;;0.60;0.60;;;;;;;;;;5050926;28;20036;-79
2021/05/08 06:14:51;;;;;;;0.35;0.30;;;;;;;;;;5050996;28;20021;-79
2021/05/08 06:17:17;;;;;;;0.43;0.43;;;;;;;;;;5051588;28;20112;-78
2021/05/08 06:19:43;;;;;;;0.60;0.60;;;;;;;;;;5052209;28;20036;-79
2021/05/08 06:22:09;;;;;;;0.95;0.95;;;;;;;;;;5050291;28;20102;-79
2021/05/08 06:24:35;;;;;;;0.75;0.52;;;;;;;;;;5051490;28;20048;-79
2021/05/08 06:27:01;;;;;;;0.90;0.90;;;;;;;;;;5051600;28;20399;-79
2021/05/08 06:29:28;;;;;;;0.50;0.50;;;;;;;;;;5050763;28;20021;-79
2021/05/08 06:31:54;;;;;;;0.60;0.60;;;;;;;;;;5051315;28;20036;-79
2021/05/08 06:34:20;;;;;;;0.50;0.50;;;;;;;;;;5050238;28;20021;-79
2021/05/08 06:36:46;;;;;;;0.40;0.40;;;;;;;;;;5052140;28;20025;-79
2021/05/08 06:39:12;;;;;;;0.30;0.30;;;;;;;;;;5050643;28;20375;-78
2021/05/08 06:41:38;;;;;;;0.50;0.50;;;;;;;;;;5051459;28;20032;-79
2021/05/08 06:44:05;;;;;;;0.65;0.65;;;;;;;;;;5050340;28;20021;-79
2021/05/08 06:46:31;;;;;;;0.73;0.73;;;;;;;;;;5051364;28;20124;-79
2021/05/08 06:48:57;;;;;;;1.20;0.82;;;;;;;;;;5051275;28;20029;-79
2021/05/08 06:51:23;;;;;;;0.65;0.65;;;;;;;;;;5050062;28;20040;-79
2021/05/08 06:53:49;;;;;;;0.45;0.45;;;;;;;;;;5049441;28;20025;-79
2021/05/08 06:56:16;;;;;;;0.90;0.90;;;;;;;;;;5050698;28;20025;-79
2021/05/08 06:58:42;;;;;;;0.75;0.75;;;;;;;;;;5050476;28;20048;-79
2021/05/08 07:01:08;;;;;;;1.25;0.43;;;;;;;;;;5050697;28;20040;-79
2021/05/08 07:03:35;;;;;;;0.90;0.60;;;;;;;;;;5050373;28;20082;-79
2021/05/08 07:06:01;;;;;;;0.68;0.57;;;;;;;;;;5050411;28;20103;-79
2021/05/08 07:08:27;;;;;;;1.70;0.50;;;;;;;;;;5050858;28;20033;-79
2021/05/08 07:10:54;;;;;;;0.50;0.50;;;;;;;;;;5050809;28;20050;-79
2021/05/08 07:13:21;;;;;;;1.52;1.17;;;;;;;;;;5049866;28;20100;-79
2021/05/08 07:15:47;;;;;;;0.73;0.60;;;;;;;;;;5050285;28;20025;-79
2021/05/08 07:18:13;;;;;;;0.77;0.70;;;;;;;;;;5050893;28;20532;-78
2021/05/08 07:20:40;;;;;;;0.75;0.70;;;;;;;;;;5050523;28;20095;-79
2021/05/08 07:23:06;;;;;;;0.80;0.80;;;;;;;;;;5050476;28;20099;-78
2021/05/08 07:25:35;;;;;;;0.80;0.30;;;;;;;;;;5050244;28;20028;-79
2021/05/08 07:28:14;;;;;;;1.38;1.27;;;;;;;;;;5050778;28;20045;-79
2021/05/08 07:30:41;;;;;;;1.10;0.50;;;;;;;;;;5049848;28;20104;-77
2021/05/08 07:33:08;;;;;;;0.55;0.55;;;;;;;;;;5050247;28;20104;-76
2021/05/08 07:35:34;;;;;;;1.67;0.50;;;;;;;;;;5050444;28;20028;-77
2021/05/08 07:38:00;;;;;;;0.50;0.50;;;;;;;;;;5050845;28;20078;-77
2021/05/08 07:40:27;;;;;;;1.33;1.15;;;;;;;;;;5050434;28;20053;-77
2021/05/08 07:42:53;;;;;;;1.20;0.90;;;;;;;;;;5050389;28;20029;-77
2021/05/08 07:45:19;;;;;;;1.42;0.80;;;;;;;;;;5050598;28;20056;-77
2021/05/08 07:47:45;;;;;;;0.60;0.60;;;;;;;;;;5050220;28;20032;-77
2021/05/08 07:50:11;;;;;;;0.73;0.73;;;;;;;;;;5049748;28;20025;-79
2021/05/08 07:52:37;;;;;;;0.75;0.75;;;;;;;;;;5050240;28;20096;-79
2021/05/08 07:55:05;;;;;;;0.60;0.57;;;;;;;;;;5050211;28;20029;-79
2021/05/08 07:57:31;;;;;;;0.93;0.70;;;;;;;;;;5049660;28;20049;-79
2021/05/08 07:59:57;;;;;;;0.60;0.60;;;;;;;;;;5050266;28;20025;-79
2021/05/08 08:02:23;;;;;;;0.73;0.60;;;;;;;;;;5047922;28;20028;-79
2021/05/08 08:04:49;;;;;;;0.80;0.73;;;;;;;;;;5049272;28;20082;-79
2021/05/08 08:07:15;;;;;;;0.43;0.43;;;;;;;;;;5049499;28;20037;-78
2021/05/08 08:09:44;;;;;;;0.70;0.70;;;;;;;;;;5050368;28;20025;-79
2021/05/08 08:12:11;;;;;;;1.33;0.90;;;;;;;;;;5049197;28;20100;-79
2021/05/08 08:14:37;;;;;;;0.40;0.40;;;;;;;;;;5050023;28;20112;-79
2021/05/08 08:17:04;;;;;;;0.50;0.50;;;;;;;;;;5050299;28;20177;-79
2021/05/08 08:19:31;;;;;;;0.98;0.98;;;;;;;;;;5049542;28;20025;-79
2021/05/08 08:21:58;;;;;;;1.58;1.48;;;;;;;;;;5049526;28;20036;-79
2021/05/08 08:24:24;;;;;;;0.95;0.95;;;;;;;;;;5052410;28;20032;-79
2021/05/08 08:26:50;;;;;;;1.17;0.82;;;;;;;;;;5053733;28;20037;-79
2021/05/08 08:29:16;;;;;;;0.77;0.55;;;;;;;;;;5052951;28;20024;-78
2021/05/08 08:31:43;;;;;;;0.57;0.50;;;;;;;;;;5052713;28;20096;-79
2021/05/08 08:34:09;;;;;;;0.77;0.73;;;;;;;;;;5052647;28;20074;-79
2021/05/08 08:36:35;;;;;;;1.50;0.85;;;;;;;;;;5053997;28;20418;-79
2021/05/08 08:39:01;;;;;;;0.80;0.70;;;;;;;;;;5053156;28;20096;-79
2021/05/08 08:41:27;;;;;;;2.22;1.13;;;;;;;;;;5053029;28;20029;-79
2021/05/08 08:43:53;;;;;;;1.20;0.85;;;;;;;;;;5052963;28;20029;-79
2021/05/08 08:46:20;;;;;;;0.63;0.60;;;;;;;;;;5053474;28;20060;-78
2021/05/08 08:48:46;;;;;;;0.60;0.60;;;;;;;;;;5053676;28;20025;-77
2021/05/08 08:51:15;;;;;;;1.05;0.95;;;;;;;;;;5051896;28;20361;-77
2021/05/08 08:53:42;;;;;;;0.63;0.60;;;;;;;;;;5052927;28;20048;-77
2021/05/08 08:56:08;;;;;;;1.45;1.05;;;;;;;;;;5053325;28;20493;-76
2021/05/08 08:58:38;;;;;;;0.80;0.70;;;;;;;;;;5053243;28;20053;-77
2021/05/08 09:01:05;;;;;;;0.70;0.70;;;;;;;;;;5052612;28;20017;-77
2021/05/08 09:03:31;;;;;;;1.10;1.05;;;;;;;;;;5052445;28;20029;-77
2021/05/08 09:05:59;;;;;;;0.82;0.82;;;;;;;;;;5053513;28;20021;-77
2021/05/08 09:08:25;;;;;;;0.50;0.50;;;;;;;;;;5052473;28;20051;-79
2021/05/08 09:10:51;;;;;;;0.70;0.70;;;;;;;;;;5051934;28;20025;-79
2021/05/08 09:13:19;;;;;;;0.70;0.70;;;;;;;;;;5051743;28;20383;-79
2021/05/08 09:15:46;;;;;;;0.80;0.80;;;;;;;;;;5052967;28;20089;-79
2021/05/08 09:18:32;;;;;;;0.98;0.93;;;;;;;;;;5052936;28;20033;-78
2021/05/08 09:20:58;;;;;;;0.60;0.60;;;;;;;;;;5052302;28;20047;-77
2021/05/08 09:23:32;;;;;;;0.82;0.70;;;;;;;;;;5052455;28;20464;-77
2021/05/08 09:26:04;;;;;;;1.17;0.65;;;;;;;;;;5052195;28;20083;-77
2021/05/08 09:28:31;;;;;;;0.70;0.70;;;;;;;;;;5052894;28;20120;-77
2021/05/08 09:30:57;;;;;;;1.08;1.00;;;;;;;;;;5052347;28;20057;-77
2021/05/08 09:33:25;;;;;;;0.65;0.65;;;;;;;;;;5050990;28;20040;-77
2021/05/08 09:36:06;;;;;;;1.00;0.90;;;;;;;;;;5051552;28;20465;-77
2021/05/08 09:38:34;;;;;;;0.63;0.63;;;;;;;;;;5051777;28;20036;-77
2021/05/08 09:41:00;;;;;;;0.85;0.85;;;;;;;;;;5051868;28;20484;-77
2021/05/08 09:43:26;;;;;;;0.80;0.50;;;;;;;;;;5051117;28;20029;-77
2021/05/08 09:45:53;;;;;;;0.80;0.55;;;;;;;;;;5051858;28;20056;-77
2021/05/08 09:48:20;;;;;;;1.52;0.70;;;;;;;;;;5052199;28;20102;-77
2021/05/08 09:50:47;;;;;;;0.80;0.80;;;;;;;;;;5051736;28;20071;-77
2021/05/08 09:53:34;;;;;;;1.67;1.10;;;;;;;;;;5051685;28;20544;-79
2021/05/08 09:56:00;;;;;;;0.32;0.32;;;;;;;;;;5051556;28;20040;-79
2021/05/08 09:58:26;;;;;;;0.73;0.73;;;;;;;;;;5051634;28;20053;-79
2021/05/08 10:00:54;;;;;;;1.08;0.75;;;;;;;;;;5051905;28;20033;-79
2021/05/08 10:03:20;;;;;;;0.73;0.73;;;;;;;;;;5050407;28;20387;-79
2021/05/08 10:05:50;;;;;;;1.00;1.00;;;;;;;;;;5051818;28;20464;-79
2021/05/08 10:08:16;;;;;;;0.60;0.60;;;;;;;;;;5051397;28;20491;-79
2021/05/08 10:10:42;;;;;;;0.55;0.55;;;;;;;;;;5052142;28;20025;-79
2021/05/08 10:13:12;;;;;;;0.40;0.40;;;;;;;;;;5051007;28;20055;-79
2021/05/08 10:15:42;;;;;;;0.65;0.65;;;;;;;;;;5051641;28;20021;-79
2021/05/08 10:18:12;;;;;;;0.98;0.98;;;;;;;;;;5052018;28;20108;-79
2021/05/08 10:20:42;;;;;;;0.77;0.60;;;;;;;;;;5051821;28;20029;-79
2021/05/08 10:23:09;;;;;;;5.78;0.88;;;;;;;;;;5050394;28;20029;-79
2021/05/08 10:25:36;;;;;;;0.50;0.50;;;;;;;;;;5051907;28;20383;-79
2021/05/08 10:28:02;;;;;;;1.92;1.13;;;;;;;;;;5051492;28;20040;-79
2021/05/08 10:30:35;;;;;;;0.80;0.77;;;;;;;;;;5051206;28;20033;-79
2021/05/08 10:33:06;;;;;;;0.47;0.47;;;;;;;;;;5051025;28;20055;-79
2021/05/08 10:35:45;;;;;;;0.63;0.63;;;;;;;;;;5050751;28;20029;-79
2021/05/08 10:38:27;;;;;;;2.30;0.70;;;;;;;;;;5050824;28;20096;-79
2021/05/08 10:40:55;;;;;;;2.05;0.50;;;;;;;;;;5051589;28;20495;-79
2021/05/08 10:43:41;;;;;;;1.13;0.88;;;;;;;;;;5051024;28;20025;-79
2021/05/08 10:46:07;;;;;;;1.30;1.20;;;;;;;;;;5050094;28;20021;-79
2021/05/08 10:48:33;;;;;;;0.90;0.90;;;;;;;;;;5050928;28;20029;-79
2021/05/08 10:51:00;;;;;;;0.85;0.70;;;;;;;;;;5050668;28;20498;-79
2021/05/08 10:53:36;;;;;;;1.52;1.05;;;;;;;;;;5050963;28;20060;-79
2021/05/08 10:56:02;;;;;;;0.75;0.75;;;;;;;;;;5050417;28;20025;-79
2021/05/08 10:58:30;;;;;;;0.68;0.68;;;;;;;;;;5050484;28;20037;-79
2021/05/08 11:00:56;;;;;;;0.73;0.73;;;;;;;;;;5051108;28;20055;-79
2021/05/08 11:03:26;;;;;;;0.88;0.60;;;;;;;;;;5050108;28;20507;-79
2021/05/08 11:06:01;;;;;;;0.63;0.60;;;;;;;;;;5050493;28;20028;-77
2021/05/08 11:08:28;;;;;;;0.77;0.77;;;;;;;;;;5050902;28;20041;-79
2021/05/08 11:10:54;;;;;;;0.25;0.25;;;;;;;;;;5051076;28;20033;-79
2021/05/08 11:13:26;;;;;;;0.80;0.80;;;;;;;;;;5050412;28;20104;-79
2021/05/08 11:15:55;;;;;;;0.70;0.70;;;;;;;;;;5050444;28;20025;-79
2021/05/08 11:18:34;;;;;;;0.80;0.80;;;;;;;;;;5050438;28;20558;-79
2021/05/08 11:21:05;;;;;;;0.70;0.70;;;;;;;;;;5051036;28;20561;-79
2021/05/08 11:24:04;;;;;;;1.90;0.75;;;;;;;;;;5050445;28;20037;-79
2021/05/08 11:26:32;;;;;;;0.63;0.63;;;;;;;;;;5028879;28;20091;-79
2021/05/08 11:29:01;;;;;;;0.50;0.50;;;;;;;;;;5050928;28;20486;-79
2021/05/08 11:31:30;;;;;;;0.80;0.80;;;;;;;;;;5049443;28;20032;-79
2021/05/08 11:34:07;;;;;;;0.85;0.80;;;;;;;;;;5049513;28;20094;-79
2021/05/08 11:36:41;;;;;;;1.17;1.08;;;;;;;;;;5050723;28;20095;-79
2021/05/08 11:39:08;;;;;;;0.68;0.68;;;;;;;;;;5049768;28;20079;-78
2021/05/08 11:41:34;;;;;;;0.70;0.63;;;;;;;;;;5050332;28;20029;-79
2021/05/08 11:44:00;;;;;;;0.77;0.77;;;;;;;;;;5050608;28;20060;-79
2021/05/08 11:46:30;;;;;;;0.52;0.50;;;;;;;;;;5050384;28;20032;-79
2021/05/08 11:48:57;;;;;;;0.50;0.50;;;;;;;;;;5050169;28;20021;-79
2021/05/08 11:51:23;;;;;;;0.63;0.57;;;;;;;;;;5047712;28;20445;-79
2021/05/08 11:54:08;;;;;;;0.70;0.70;;;;;;;;;;5050474;28;20021;-79
2021/05/08 11:56:34;;;;;;;0.73;0.73;;;;;;;;;;5050859;28;20065;-79
2021/05/08 11:59:01;;;;;;;0.52;0.52;;;;;;;;;;5052240;28;20041;-79
2021/05/08 12:01:31;;;;;;;0.40;0.40;;;;;;;;;;5053365;28;20044;-79
2021/05/08 12:03:58;;;;;;;1.88;0.90;;;;;;;;;;5053931;28;20108;-79
2021/05/08 12:06:25;;;;;;;0.75;0.75;;;;;;;;;;5054056;28;20542;-79
2021/05/08 12:08:51;;;;;;;0.80;0.80;;;;;;;;;;5054234;28;20069;-79
2021/05/08 12:11:18;;;;;;;0.60;0.57;;;;;;;;;;5053656;28;20076;-79
2021/05/08 12:13:44;;;;;;;0.60;0.60;;;;;;;;;;5053462;28;20021;-79
2021/05/08 12:16:10;;;;;;;0.60;0.60;;;;;;;;;;5054215;28;20028;-78
2021/05/08 12:18:37;;;;;;;0.40;0.40;;;;;;;;;;5054321;28;20519;-79
2021/05/08 12:21:03;;;;;;;0.90;0.90;;;;;;;;;;5053373;28;20031;-79
2021/05/08 12:23:30;;;;;;;1.13;1.05;;;;;;;;;;5053703;28;20028;-79
2021/05/08 12:26:09;;;;;;;0.65;0.55;;;;;;;;;;5053317;28;20614;-79
2021/05/08 12:28:36;;;;;;;0.60;0.60;;;;;;;;;;5054233;28;20045;-79
2021/05/08 12:31:22;;;;;;;2.10;0.90;;;;;;;;;;5053188;28;20032;-79
2021/05/08 12:33:49;;;;;;;1.63;0.70;;;;;;;;;;5052586;28;20107;-77
2021/05/08 12:36:20;;;;;;;1.05;0.63;;;;;;;;;;5053539;28;20025;-77
2021/05/08 12:38:47;;;;;;;0.47;0.47;;;;;;;;;;5053939;28;20025;-77
2021/05/08 12:41:23;;;;;;;1.85;1.20;;;;;;;;;;5052692;28;20033;-77
2021/05/08 12:43:50;;;;;;;0.65;0.60;;;;;;;;;;5053387;28;20515;-77
2021/05/08 12:46:16;;;;;;;0.52;0.52;;;;;;;;;;5052991;28;20091;-76
2021/05/08 12:48:45;;;;;;;0.63;0.60;;;;;;;;;;5053979;28;20132;-77
2021/05/08 12:51:29;;;;;;;0.93;0.93;;;;;;;;;;5067682;28;20503;-76
2021/05/08 12:54:14;;;;;;;0.55;0.55;;;;;;;;;;5073209;28;20027;-77
2021/05/08 12:56:41;;;;;;;0.75;0.75;;;;;;;;;;5073429;28;20028;-76
2021/05/08 12:59:08;;;;;;;0.70;0.68;;;;;;;;;;5073389;28;20379;-77
2021/05/08 13:01:36;;;;;;;0.73;0.73;;;;;;;;;;5072687;28;20100;-77
2021/05/08 13:04:02;;;;;;;1.23;1.13;;;;;;;;;;5072300;28;20535;-77
2021/05/08 13:06:28;;;;;;;0.70;0.70;;;;;;;;;;5072985;28;20650;-77
2021/05/08 13:08:55;;;;;;;0.88;0.68;;;;;;;;;;5073307;28;20055;-77
2021/05/08 13:11:34;;;;;;;0.70;0.70;;;;;;;;;;5071995;28;20028;-77
2021/05/08 13:14:18;;;;;;;0.68;0.68;;;;;;;;;;5072649;28;20029;-77
2021/05/08 13:16:45;;;;;;;0.57;0.40;;;;;;;;;;5073155;28;20040;-77
2021/05/08 13:19:11;;;;;;;0.60;0.60;;;;;;;;;;5072523;28;20363;-77
2021/05/08 13:21:37;;;;;;;0.40;0.40;;;;;;;;;;5072619;28;20028;-77
2021/05/08 13:24:05;;;;;;;1.58;0.47;;;;;;;;;;5072657;28;20025;-76
2021/05/08 13:26:31;;;;;;;1.27;0.50;;;;;;;;;;5071989;28;20021;-77
2021/05/08 13:28:57;;;;;;;0.55;0.55;;;;;;;;;;5072957;28;20052;-77
2021/05/08 13:31:23;;;;;;;1.63;0.50;;;;;;;;;;5072383;28;20029;-77
2021/05/08 13:33:49;;;;;;;0.70;0.57;;;;;;;;;;5071327;28;20036;-79
2021/05/08 13:36:19;;;;;;;0.40;0.40;;;;;;;;;;5072169;28;20109;-78
2021/05/08 13:38:46;;;;;;;0.57;0.55;;;;;;;;;;5071880;28;20028;-79
2021/05/08 13:41:13;;;;;;;0.50;0.50;;;;;;;;;;5072019;28;20012;-79
2021/05/08 13:43:39;;;;;;;0.85;0.60;;;;;;;;;;5071767;28;20134;-79
2021/05/08 13:46:05;;;;;;;0.50;0.50;;;;;;;;;;5072342;28;20016;-79
2021/05/08 13:48:31;;;;;;;0.50;0.50;;;;;;;;;;5071254;28;20044;-79
2021/05/08 13:50:57;;;;;;;0.80;0.70;;;;;;;;;;5058454;28;20132;-79
2021/05/08 13:53:24;;;;;;;0.55;0.55;;;;;;;;;;5051774;28;20037;-79
2021/05/08 13:55:50;;;;;;;1.17;1.08;;;;;;;;;;5051941;28;20104;-79
2021/05/08 13:58:16;;;;;;;0.68;0.63;;;;;;;;;;5051908;28;20084;-79
2021/05/08 14:00:42;;;;;;;1.40;0.75;;;;;;;;;;5052323;28;20554;-79
2021/05/08 14:03:08;;;;;;;1.02;0.60;;;;;;;;;;5051138;28;20029;-79
2021/05/08 14:05:34;;;;;;;0.60;0.60;;;;;;;;;;5051186;28;20104;-79
2021/05/08 14:08:00;;;;;;;0.68;0.68;;;;;;;;;;5051480;28;20037;-79
2021/05/08 14:10:26;;;;;;;0.80;0.80;;;;;;;;;;5050716;28;20048;-79
2021/05/08 14:12:52;;;;;;;0.93;0.70;;;;;;;;;;5050890;28;20108;-79
2021/05/08 14:15:18;;;;;;;1.02;0.93;;;;;;;;;;5050065;28;20121;-78
2021/05/08 14:17:44;;;;;;;0.75;0.75;;;;;;;;;;5050841;28;20186;-79
2021/05/08 14:20:10;;;;;;;0.82;0.82;;;;;;;;;;5050866;28;20510;-78
2021/05/08 14:22:37;;;;;;;0.50;0.40;;;;;;;;;;5051016;28;20021;-79
2021/05/08 14:25:05;;;;;;;0.70;0.63;;;;;;;;;;5050600;28;20558;-79
2021/05/08 14:27:31;;;;;;;0.82;0.65;;;;;;;;;;5051347;28;20033;-79
2021/05/08 14:29:59;;;;;;;0.82;0.82;;;;;;;;;;5050439;28;20032;-79
2021/05/08 14:32:25;;;;;;;1.55;0.60;;;;;;;;;;5050558;28;20201;-79
2021/05/08 14:34:52;;;;;;;0.50;0.50;;;;;;;;;;5049833;28;20029;-79
2021/05/08 14:37:18;;;;;;;0.82;0.73;;;;;;;;;;5049851;28;20024;-79
2021/05/08 14:39:44;;;;;;;1.00;0.80;;;;;;;;;;5050598;28;20071;-79
2021/05/08 14:42:10;;;;;;;0.57;0.55;;;;;;;;;;5050548;28;20091;-78
2021/05/08 14:44:36;;;;;;;0.95;0.55;;;;;;;;;;5050636;28;20480;-78